Time;durP1;ratioP1;P1;durP2;ratioP2;P2;SDS_P1;SDS_P2;PMS_P1;PMS_P2;Temp;Humidity;BMP_temperature;BMP_pressure;BME280_temperature;BME280_humidity;BME280_pressure;Samples;Min_cycle;Max_cycle;Signal;HPM_P1;HPM_P2
2022/10/11 00:01:01;;;;;;;11.53;4.50;;;14.50;99.90;;;;;;4846033;29;20209;-89
2022/10/11 00:03:27;;;;;;;12.73;5.10;;;14.50;99.90;;;;;;4846243;29;20184;-89
2022/10/11 00:05:53;;;;;;;8.70;4.60;;;14.50;99.90;;;;;;4846421;29;20257;-89
2022/10/11 00:08:20;;;;;;;10.00;4.93;;;14.50;99.90;;;;;;4845990;29;20197;-89
2022/10/11 00:10:56;;;;;;;10.13;5.00;;;14.50;99.90;;;;;;4861301;29;20211;-88
2022/10/11 00:13:22;;;;;;;9.03;5.27;;;14.50;99.90;;;;;;4861293;29;20180;-89
2022/10/11 00:15:48;;;;;;;9.43;4.87;;;14.50;99.90;;;;;;4861261;29;20306;-89
2022/10/11 00:18:14;;;;;;;14.40;5.40;;;14.40;99.90;;;;;;4845858;29;20236;-89
2022/10/11 00:20:40;;;;;;;11.70;5.73;;;14.40;99.90;;;;;;4844887;29;20271;-89
2022/10/11 00:23:06;;;;;;;13.17;5.63;;;14.40;99.90;;;;;;4846052;29;20256;-89
2022/10/11 00:25:32;;;;;;;14.57;6.00;;;14.40;99.90;;;;;;4846048;29;20200;-89
2022/10/11 00:27:58;;;;;;;10.07;5.20;;;14.50;99.90;;;;;;4845271;29;20189;-89
2022/10/11 00:30:23;;;;;;;9.67;5.73;;;14.50;99.90;;;;;;4842695;29;20217;-89
2022/10/11 00:32:49;;;;;;;10.80;5.50;;;14.50;99.90;;;;;;4848630;29;20209;-89
2022/10/11 00:35:15;;;;;;;7.30;5.20;;;14.50;99.90;;;;;;4861204;29;20237;-89
2022/10/11 00:37:41;;;;;;;11.30;5.57;;;14.50;99.90;;;;;;4860677;29;20643;-89
2022/10/11 00:40:13;;;;;;;9.43;6.10;;;14.50;99.90;;;;;;4860945;29;20208;-89
2022/10/11 00:42:39;;;;;;;8.07;6.50;;;14.40;99.90;;;;;;4860478;29;20264;-89
2022/10/11 00:45:26;;;;;;;11.67;7.23;;;14.40;99.90;;;;;;4861095;29;20238;-89
2022/10/11 00:47:58;;;;;;;10.40;7.13;;;14.50;99.90;;;;;;4860323;29;20189;-89
2022/10/11 00:50:26;;;;;;;9.53;7.00;;;14.50;99.90;;;;;;4860895;29;20216;-88
2022/10/11 00:52:56;;;;;;;10.87;7.30;;;14.50;99.90;;;;;;4860965;29;20211;-88
2022/10/11 00:55:25;;;;;;;14.00;7.00;;;14.50;99.90;;;;;;4861210;29;20187;-88
2022/10/11 00:57:52;;;;;;;10.23;7.17;;;14.50;99.90;;;;;;4861216;29;20267;-88
2022/10/11 01:00:19;;;;;;;10.00;6.57;;;14.50;99.90;;;;;;4861078;29;20193;-88
2022/10/11 01:02:45;;;;;;;11.03;6.93;;;14.40;99.90;;;;;;4860195;29;20261;-89
2022/10/11 01:05:15;;;;;;;10.90;7.00;;;14.30;99.90;;;;;;4845143;29;20183;-88
2022/10/11 01:07:43;;;;;;;10.10;6.70;;;14.30;99.90;;;;;;4844561;29;20181;-89
2022/10/11 01:10:09;;;;;;;10.30;6.93;;;14.30;99.90;;;;;;4860226;29;20212;-89
2022/10/11 01:12:43;;;;;;;12.17;6.97;;;14.30;99.90;;;;;;4860238;29;20215;-89
2022/10/11 01:15:17;;;;;;;9.00;6.43;;;14.30;99.90;;;;;;4860416;29;20234;-88
2022/10/11 01:18:11;;;;;;;9.90;6.70;;;14.30;99.90;;;;;;4859980;29;20176;-89
2022/10/11 01:20:44;;;;;;;10.63;7.23;;;14.30;99.90;;;;;;4860285;29;20191;-89
2022/10/11 01:23:25;;;;;;;9.13;7.23;;;14.30;99.90;;;;;;4860372;29;20181;-89
2022/10/11 01:26:32;;;;;;;9.80;6.87;;;14.30;99.90;;;;;;4844806;29;20709;-89
2022/10/11 01:29:37;;;;;;;14.83;7.03;;;14.30;99.90;;;;;;4859816;29;20196;-89
2022/10/11 01:32:14;;;;;;;8.27;6.10;;;14.40;99.90;;;;;;4844556;29;20208;-89
2022/10/11 01:35:03;;;;;;;10.00;6.80;;;14.30;99.90;;;;;;4844255;29;20177;-89
2022/10/11 01:37:35;;;;;;;12.13;6.40;;;14.30;99.90;;;;;;4842501;29;20193;-89
2022/10/11 01:40:23;;;;;;;10.00;6.87;;;14.30;99.90;;;;;;4853984;29;20193;-89
2022/10/11 01:42:51;;;;;;;10.63;6.73;;;14.20;99.90;;;;;;4844323;29;20299;-89
2022/10/11 01:45:18;;;;;;;10.63;6.97;;;14.10;99.90;;;;;;4859635;29;20265;-89
2022/10/11 01:47:44;;;;;;;9.27;6.83;;;14.10;99.90;;;;;;4859672;29;20188;-88
2022/10/11 01:50:34;;;;;;;10.73;6.60;;;14.10;99.90;;;;;;4857793;29;20208;-89
2022/10/11 01:53:12;;;;;;;10.20;6.27;;;14.00;99.90;;;;;;4859602;29;21709;-89
2022/10/11 01:56:16;;;;;;;9.60;6.40;;;14.00;99.90;;;;;;4844146;29;20189;-88
2022/10/11 01:59:06;;;;;;;9.60;6.40;;;14.00;99.90;;;;;;4843440;29;20195;-89
2022/10/11 02:01:47;;;;;;;10.17;7.27;;;13.90;99.90;;;;;;4843377;29;20240;-89
2022/10/11 02:04:51;;;;;;;9.43;6.60;;;13.80;99.90;;;;;;4873361;29;20192;-89
2022/10/11 02:07:22;;;;;;;7.77;6.07;;;13.70;99.90;;;;;;4841923;29;20200;-89
2022/10/11 02:09:53;;;;;;;8.43;5.77;;;13.50;99.90;;;;;;4842333;29;20240;-89
2022/10/11 02:12:26;;;;;;;9.03;5.47;;;13.40;99.90;;;;;;4843317;29;20201;-89
2022/10/11 02:14:55;;;;;;;7.63;5.70;;;13.40;99.90;;;;;;4844480;29;20207;-89
2022/10/11 02:17:26;;;;;;;9.67;6.13;;;13.40;99.90;;;;;;4859386;29;20208;-89
2022/10/11 02:19:55;;;;;;;7.50;5.70;;;13.40;99.90;;;;;;4859415;29;20268;-89
2022/10/11 02:22:34;;;;;;;16.23;6.87;;;13.40;99.90;;;;;;4858214;29;20228;-88
2022/10/11 02:25:04;;;;;;;11.20;7.63;;;13.40;99.90;;;;;;4843825;29;20192;-89
2022/10/11 02:27:34;;;;;;;12.40;7.67;;;13.30;99.90;;;;;;4859055;29;20191;-89
2022/10/11 02:30:03;;;;;;;9.00;6.73;;;13.30;99.90;;;;;;4843809;29;20211;-89
2022/10/11 02:32:30;;;;;;;14.77;7.53;;;13.30;99.90;;;;;;4859722;29;20209;-88
2022/10/11 02:34:59;;;;;;;6.97;5.10;;;13.30;99.90;;;;;;4859335;29;20184;-89
2022/10/11 02:37:43;;;;;;;6.50;5.13;;;13.20;99.90;;;;;;4859143;29;20189;-89
2022/10/11 02:40:24;;;;;;;21.77;8.13;;;13.20;99.90;;;;;;4859342;29;20283;-88
2022/10/11 02:43:01;;;;;;;11.30;5.37;;;13.20;99.90;;;;;;4860830;29;20252;-88
2022/10/11 02:45:56;;;;;;;20.03;6.73;;;13.10;99.90;;;;;;4862942;29;20252;-89
2022/10/11 02:48:24;;;;;;;14.40;7.07;;;13.10;99.90;;;;;;4860646;29;20200;-88
2022/10/11 02:50:49;;;;;;;13.07;7.20;;;13.10;99.90;;;;;;4862903;29;20216;-88
2022/10/11 02:53:15;;;;;;;8.70;6.10;;;13.10;99.90;;;;;;4862674;29;20181;-89
2022/10/11 02:55:41;;;;;;;9.20;6.97;;;13.10;99.90;;;;;;4862513;29;20185;-89
2022/10/11 02:58:07;;;;;;;12.23;7.13;;;13.10;99.90;;;;;;4862165;29;20189;-89
2022/10/11 03:00:33;;;;;;;23.23;8.27;;;13.20;99.90;;;;;;4847248;29;20200;-89
2022/10/11 03:02:59;;;;;;;21.20;9.80;;;13.20;99.90;;;;;;4847057;29;20188;-89
2022/10/11 03:05:25;;;;;;;18.80;8.47;;;13.20;99.90;;;;;;4862486;29;20188;-88
2022/10/11 03:07:50;;;;;;;17.30;9.30;;;13.30;99.90;;;;;;4862139;29;20191;-89
2022/10/11 03:10:16;;;;;;;17.40;10.13;;;13.30;99.90;;;;;;4847055;29;20309;-89
2022/10/11 03:12:56;;;;;;;12.27;8.50;;;13.30;99.90;;;;;;4846754;29;20588;-89
2022/10/11 03:15:22;;;;;;;12.10;8.73;;;13.30;99.90;;;;;;4863192;29;20247;-89
2022/10/11 03:17:48;;;;;;;11.90;8.33;;;13.40;99.90;;;;;;4846667;29;20271;-89
2022/10/11 03:20:14;;;;;;;12.43;8.43;;;13.40;99.90;;;;;;4847200;29;20341;-89
2022/10/11 03:22:40;;;;;;;12.97;7.93;;;13.40;99.90;;;;;;4861998;29;20212;-89
2022/10/11 03:25:06;;;;;;;11.47;8.13;;;13.50;99.90;;;;;;4862365;29;20184;-88
2022/10/11 03:27:32;;;;;;;23.77;9.53;;;13.50;99.90;;;;;;4861868;29;20271;-88
2022/10/11 03:29:58;;;;;;;13.67;9.03;;;13.50;99.90;;;;;;4846732;29;20224;-88
2022/10/11 03:32:24;;;;;;;16.03;8.43;;;13.50;99.90;;;;;;4845529;29;20213;-89
2022/10/11 03:34:50;;;;;;;15.87;8.80;;;13.50;99.90;;;;;;4860710;29;20557;-89
2022/10/11 03:37:16;;;;;;;12.83;8.13;;;13.50;99.90;;;;;;4859884;29;20199;-89
2022/10/11 03:39:42;;;;;;;12.77;8.80;;;13.50;99.90;;;;;;4860425;29;20612;-88
2022/10/11 03:42:07;;;;;;;17.57;7.43;;;13.50;99.90;;;;;;4858530;29;20208;-89
2022/10/11 03:44:33;;;;;;;11.90;8.13;;;13.50;99.90;;;;;;4861649;29;20195;-89
2022/10/11 03:46:59;;;;;;;12.97;8.23;;;13.60;99.90;;;;;;4861662;29;20193;-90
2022/10/11 03:49:25;;;;;;;14.93;8.50;;;13.50;99.90;;;;;;4861588;29;20185;-89
2022/10/11 03:51:51;;;;;;;14.53;8.13;;;13.50;99.90;;;;;;4861387;29;20208;-90
2022/10/11 03:54:17;;;;;;;14.70;8.33;;;13.50;99.90;;;;;;4845593;29;20189;-90
2022/10/11 03:56:43;;;;;;;19.07;11.07;;;13.40;99.90;;;;;;4861419;29;20189;-89
2022/10/11 03:59:09;;;;;;;24.70;12.73;;;13.40;99.90;;;;;;4846226;29;20215;-89
2022/10/11 04:01:41;;;;;;;23.03;12.73;;;13.40;99.90;;;;;;4859593;29;20265;-89
2022/10/11 04:04:07;;;;;;;13.90;9.60;;;13.40;99.90;;;;;;4845743;29;20192;-89
2022/10/11 04:06:33;;;;;;;15.20;9.30;;;13.40;99.90;;;;;;4860908;29;20206;-89
2022/10/11 04:08:59;;;;;;;13.50;7.60;;;13.40;99.90;;;;;;4861017;29;20264;-89
2022/10/11 04:11:25;;;;;;;10.10;7.30;;;13.40;99.90;;;;;;4860760;29;20212;-89
2022/10/11 04:13:51;;;;;;;8.53;7.23;;;13.40;99.90;;;;;;4860970;29;20264;-88
2022/10/11 04:16:17;;;;;;;9.27;6.83;;;13.40;99.90;;;;;;4860916;29;20611;-89
2022/10/11 04:18:43;;;;;;;8.80;6.23;;;13.40;99.90;;;;;;4860729;29;20181;-89
2022/10/11 04:21:09;;;;;;;12.20;6.63;;;13.40;99.90;;;;;;4845794;29;20208;-89
2022/10/11 04:23:35;;;;;;;11.23;5.90;;;13.40;99.90;;;;;;4845758;29;20187;-89
2022/10/11 04:26:05;;;;;;;9.83;6.60;;;13.50;99.90;;;;;;4861006;29;20189;-89
2022/10/11 04:28:31;;;;;;;9.27;7.37;;;13.50;99.90;;;;;;4860459;29;20188;-89
2022/10/11 04:30:57;;;;;;;12.40;8.40;;;13.60;99.90;;;;;;4844961;29;20220;-89
2022/10/11 04:33:23;;;;;;;13.00;8.17;;;13.60;99.90;;;;;;4845206;29;20245;-89
2022/10/11 04:35:55;;;;;;;9.83;7.90;;;13.60;99.90;;;;;;4861141;29;20180;-89
2022/10/11 04:38:24;;;;;;;12.07;8.60;;;13.60;99.90;;;;;;4860050;29;20219;-89
2022/10/11 04:40:51;;;;;;;11.60;8.33;;;13.50;99.90;;;;;;4856507;29;20287;-89
2022/10/11 04:43:18;;;;;;;10.03;8.13;;;13.60;99.90;;;;;;4860357;29;20185;-89
2022/10/11 04:45:44;;;;;;;10.00;8.23;;;13.60;99.90;;;;;;4860582;29;20189;-89
2022/10/11 04:48:10;;;;;;;11.47;9.00;;;13.60;99.90;;;;;;4859956;29;20261;-89
2022/10/11 04:50:59;;;;;;;9.20;7.90;;;13.60;99.90;;;;;;4859996;29;20224;-89
2022/10/11 04:53:25;;;;;;;11.27;9.00;;;13.60;99.90;;;;;;4845327;29;20174;-89
2022/10/11 04:56:10;;;;;;;12.13;9.43;;;13.60;99.90;;;;;;4848196;29;20213;-88
2022/10/11 04:58:40;;;;;;;11.57;9.40;;;13.60;99.90;;;;;;4859997;29;20181;-88
2022/10/11 05:01:07;;;;;;;11.33;9.43;;;13.60;99.90;;;;;;4860392;29;20219;-88
2022/10/11 05:03:34;;;;;;;11.47;8.60;;;13.60;99.90;;;;;;4860735;29;20252;-88
2022/10/11 05:06:00;;;;;;;10.53;8.53;;;13.60;99.90;;;;;;4859743;29;20241;-88
2022/10/11 05:08:26;;;;;;;9.37;7.60;;;13.60;99.90;;;;;;4860112;29;20202;-88
2022/10/11 05:10:59;;;;;;;11.03;8.20;;;13.60;99.90;;;;;;4860068;29;20216;-88
2022/10/11 05:13:27;;;;;;;9.40;8.23;;;13.50;99.90;;;;;;4860188;29;20230;-88
2022/10/11 05:15:53;;;;;;;9.00;7.57;;;13.50;99.90;;;;;;4860007;29;20193;-88
2022/10/11 05:18:19;;;;;;;10.27;7.17;;;13.60;99.90;;;;;;4860120;29;20209;-88
2022/10/11 05:20:45;;;;;;;10.03;8.10;;;13.50;99.90;;;;;;4860028;29;20216;-88
2022/10/11 05:23:11;;;;;;;13.63;8.70;;;13.60;99.90;;;;;;4859981;29;20192;-88
2022/10/11 05:25:41;;;;;;;10.83;8.80;;;13.60;99.90;;;;;;4860024;29;20189;-88
2022/10/11 05:28:07;;;;;;;11.10;9.30;;;13.70;99.90;;;;;;4849568;29;20199;-88
2022/10/11 05:30:33;;;;;;;12.90;8.60;;;13.70;99.90;;;;;;4844588;29;20212;-88
2022/10/11 05:32:59;;;;;;;11.70;8.30;;;13.70;99.90;;;;;;4860032;29;20189;-88
2022/10/11 05:35:25;;;;;;;13.80;9.90;;;13.70;99.90;;;;;;4854694;29;20245;-88
2022/10/11 05:37:51;;;;;;;14.67;9.43;;;13.70;99.90;;;;;;4859735;29;20181;-88
2022/10/11 05:40:17;;;;;;;13.13;8.93;;;13.70;99.90;;;;;;4859543;29;20208;-88
2022/10/11 05:42:43;;;;;;;12.77;9.67;;;13.70;99.90;;;;;;4859607;29;20208;-88
2022/10/11 05:45:09;;;;;;;13.20;9.17;;;13.70;99.90;;;;;;4844297;29;20192;-88
2022/10/11 05:47:34;;;;;;;14.70;9.00;;;13.70;99.90;;;;;;4858738;29;20197;-88
2022/10/11 05:50:00;;;;;;;12.90;8.70;;;13.70;99.90;;;;;;4860123;29;20185;-88
2022/10/11 05:52:26;;;;;;;12.37;8.10;;;13.80;99.90;;;;;;4859377;29;20212;-88
2022/10/11 05:54:52;;;;;;;15.40;7.73;;;13.70;99.90;;;;;;4859173;29;20177;-87
2022/10/11 05:57:18;;;;;;;15.10;8.17;;;13.70;99.90;;;;;;4859814;29;20219;-83
2022/10/11 05:59:44;;;;;;;14.77;8.80;;;13.70;99.90;;;;;;4860305;29;20240;-88
2022/10/11 06:02:14;;;;;;;15.67;9.00;;;13.70;99.90;;;;;;4859515;29;20228;-88
2022/10/11 06:04:40;;;;;;;12.50;9.13;;;13.70;99.90;;;;;;4859145;29;20197;-88
2022/10/11 06:07:06;;;;;;;14.40;9.87;;;13.70;99.90;;;;;;4858862;29;20185;-88
2022/10/11 06:09:51;;;;;;;18.30;10.60;;;13.70;99.90;;;;;;4858710;29;20183;-87
2022/10/11 06:12:17;;;;;;;16.23;10.27;;;13.70;99.90;;;;;;4859051;29;20291;-89
2022/10/11 06:14:43;;;;;;;11.20;8.70;;;13.70;99.90;;;;;;4843871;29;20193;-88
2022/10/11 06:17:09;;;;;;;11.60;8.83;;;13.70;99.90;;;;;;4859147;29;20184;-88
2022/10/11 06:19:35;;;;;;;13.47;9.33;;;13.70;99.90;;;;;;4862756;29;20193;-88
2022/10/11 06:22:01;;;;;;;13.70;9.20;;;13.70;99.90;;;;;;4862599;29;20208;-88
2022/10/11 06:24:27;;;;;;;18.90;10.83;;;13.70;99.90;;;;;;4862732;29;20212;-88
2022/10/11 06:26:54;;;;;;;13.10;10.10;;;13.70;99.90;;;;;;4863490;29;20197;-88
2022/10/11 06:29:20;;;;;;;13.40;10.57;;;13.70;99.90;;;;;;4862523;29;20196;-88
2022/10/11 06:31:47;;;;;;;13.60;10.40;;;13.70;99.90;;;;;;4847411;29;20685;-88
2022/10/11 06:34:14;;;;;;;14.17;10.57;;;13.70;99.90;;;;;;4847289;29;20665;-88
2022/10/11 06:36:40;;;;;;;16.27;10.77;;;13.70;99.90;;;;;;4847189;29;20189;-88
2022/10/11 06:39:06;;;;;;;12.57;10.33;;;13.80;99.90;;;;;;4847207;29;20527;-88
2022/10/11 06:41:32;;;;;;;12.67;9.47;;;13.80;99.90;;;;;;4847038;29;20201;-88
2022/10/11 06:43:58;;;;;;;14.70;10.20;;;13.80;99.90;;;;;;4847097;29;20223;-88
2022/10/11 06:46:26;;;;;;;13.47;9.80;;;13.80;99.90;;;;;;4862342;29;20196;-88
2022/10/11 06:48:55;;;;;;;16.83;11.13;;;13.80;99.90;;;;;;4862161;29;20208;-88
2022/10/11 06:51:23;;;;;;;19.00;14.10;;;13.80;99.90;;;;;;4846876;29;20299;-88
2022/10/11 06:53:56;;;;;;;19.90;12.77;;;13.80;99.90;;;;;;4862275;29;20228;-88
2022/10/11 06:56:23;;;;;;;29.73;16.93;;;13.80;99.90;;;;;;4846894;29;20180;-87
2022/10/11 06:58:52;;;;;;;26.07;16.00;;;13.80;99.90;;;;;;4845617;29;20185;-88
2022/10/11 07:01:25;;;;;;;25.57;16.40;;;13.80;99.90;;;;;;4846856;29;20239;-84
2022/10/11 07:03:53;;;;;;;23.27;16.03;;;13.90;99.90;;;;;;4862408;29;20195;-84
2022/10/11 07:06:22;;;;;;;23.10;15.67;;;13.90;99.90;;;;;;4847008;29;20228;-84
2022/10/11 07:08:48;;;;;;;26.23;17.43;;;14.00;99.90;;;;;;4847180;29;20184;-85
2022/10/11 07:11:28;;;;;;;27.30;17.00;;;14.10;99.90;;;;;;4863173;29;20248;-87
2022/10/11 07:13:59;;;;;;;26.03;17.70;;;14.10;99.90;;;;;;4843460;29;20181;-88
2022/10/11 07:16:27;;;;;;;30.33;17.63;;;14.10;99.90;;;;;;4848056;29;20213;-88
2022/10/11 07:19:05;;;;;;;26.97;18.50;;;14.10;99.90;;;;;;4861764;29;20251;-88
2022/10/11 07:21:50;;;;;;;27.83;17.37;;;14.10;99.90;;;;;;4846197;29;20216;-88
2022/10/11 07:24:25;;;;;;;30.00;17.63;;;14.20;99.90;;;;;;4846510;29;20176;-88
2022/10/11 07:26:59;;;;;;;29.23;17.93;;;14.20;99.90;;;;;;4858654;29;20212;-88
2022/10/11 07:29:25;;;;;;;31.87;18.47;;;14.20;99.90;;;;;;4845680;29;20204;-88
2022/10/11 07:31:52;;;;;;;29.97;18.63;;;14.30;99.90;;;;;;4859757;29;20220;-88
2022/10/11 07:34:19;;;;;;;30.03;18.40;;;14.30;99.90;;;;;;4859788;29;20194;-88
2022/10/11 07:36:45;;;;;;;28.17;19.30;;;14.20;99.90;;;;;;4846326;29;20196;-87
2022/10/11 07:39:11;;;;;;;30.23;19.43;;;14.20;99.90;;;;;;4845954;29;20195;-88
2022/10/11 07:41:37;;;;;;;28.30;19.37;;;14.30;99.90;;;;;;4846010;29;20204;-88
2022/10/11 07:44:10;;;;;;;33.70;19.50;;;14.30;99.90;;;;;;4862804;29;20229;-89
2022/10/11 07:46:38;;;;;;;31.63;20.40;;;14.20;99.90;;;;;;4857478;29;20199;-88
2022/10/11 07:49:17;;;;;;;32.23;19.10;;;14.20;99.90;;;;;;4846365;29;20276;-88
2022/10/11 07:51:43;;;;;;;31.33;19.13;;;14.30;99.90;;;;;;4846036;29;20219;-88
2022/10/11 07:54:09;;;;;;;33.53;20.23;;;14.30;99.90;;;;;;4846217;29;20221;-88
2022/10/11 07:56:54;;;;;;;31.90;20.10;;;14.30;99.90;;;;;;4855966;29;20196;-90
2022/10/11 07:59:20;;;;;;;31.50;19.37;;;14.30;99.90;;;;;;4861064;29;20177;-84
2022/10/11 08:01:46;;;;;;;34.23;19.27;;;14.30;99.90;;;;;;4861472;29;20204;-88
2022/10/11 08:04:12;;;;;;;30.97;19.97;;;14.40;99.90;;;;;;4860687;29;20214;-87
2022/10/11 08:06:37;;;;;;;29.67;20.97;;;14.50;99.90;;;;;;4860719;29;20638;-88
2022/10/11 08:09:58;;;;;;;31.50;19.23;;;14.50;99.90;;;;;;4860806;29;20195;-88
2022/10/11 08:12:24;;;;;;;27.87;18.90;;;14.50;99.90;;;;;;4861073;29;20219;-88
2022/10/11 08:14:54;;;;;;;29.80;18.57;;;14.60;99.90;;;;;;4860867;29;20180;-88
2022/10/11 08:17:19;;;;;;;27.80;17.27;;;14.70;99.90;;;;;;4860542;29;20188;-88
2022/10/11 08:19:45;;;;;;;26.30;16.70;;;14.70;99.90;;;;;;4860804;29;20184;-88
2022/10/11 08:22:11;;;;;;;29.53;17.60;;;14.70;99.90;;;;;;4860806;29;20220;-88
2022/10/11 08:24:37;;;;;;;25.33;15.73;;;14.60;99.90;;;;;;4860748;29;20284;-88
2022/10/11 08:27:19;;;;;;;25.60;17.23;;;14.70;99.90;;;;;;4845333;29;20200;-88
2022/10/11 08:29:45;;;;;;;28.30;16.53;;;14.70;99.90;;;;;;4860728;29;20591;-88
2022/10/11 08:32:11;;;;;;;27.60;15.60;;;14.70;99.90;;;;;;4844924;29;20271;-88
2022/10/11 08:34:42;;;;;;;28.87;16.30;;;14.70;99.90;;;;;;4860201;29;20216;-88
2022/10/11 08:37:07;;;;;;;24.60;14.03;;;14.80;99.90;;;;;;4860455;29;20204;-88
2022/10/11 08:39:33;;;;;;;26.80;14.17;;;14.80;99.90;;;;;;4860191;29;20180;-88
2022/10/11 08:42:03;;;;;;;25.03;15.00;;;14.90;99.90;;;;;;4859969;29;20208;-88
2022/10/11 08:45:07;;;;;;;28.77;15.13;;;15.00;99.90;;;;;;4860491;29;20264;-88
2022/10/11 08:47:35;;;;;;;23.63;14.77;;;15.00;99.90;;;;;;4843699;29;20196;-88
2022/10/11 08:50:02;;;;;;;22.77;13.30;;;14.90;99.90;;;;;;4860216;29;20196;-88
2022/10/11 08:52:56;;;;;;;21.37;13.37;;;14.90;99.90;;;;;;4860120;29;20216;-88
2022/10/11 08:55:29;;;;;;;26.20;13.43;;;14.90;99.90;;;;;;4843330;29;20184;-88
2022/10/11 08:57:55;;;;;;;24.57;13.90;;;15.00;99.90;;;;;;4860261;29;20211;-88
2022/10/11 09:00:23;;;;;;;24.17;14.40;;;15.00;99.90;;;;;;4860222;29;20279;-88
2022/10/11 09:03:21;;;;;;;19.10;12.90;;;15.00;99.90;;;;;;4859591;29;20364;-88
2022/10/11 09:06:09;;;;;;;18.03;12.73;;;15.00;99.90;;;;;;4859976;29;20177;-88
2022/10/11 09:08:47;;;;;;;23.77;13.50;;;15.00;99.90;;;;;;4859604;29;20196;-89
2022/10/11 09:11:23;;;;;;;20.07;13.53;;;15.10;99.90;;;;;;4844658;29;20291;-88
2022/10/11 09:14:26;;;;;;;15.97;11.63;;;15.20;99.90;;;;;;4844547;29;20192;-88
2022/10/11 09:17:36;;;;;;;21.70;12.83;;;15.20;99.90;;;;;;4844196;29;20199;-87
2022/10/11 09:20:10;;;;;;;23.73;13.03;;;15.40;99.90;;;;;;4843530;29;20185;-88
2022/10/11 09:22:57;;;;;;;27.50;13.47;;;15.40;99.90;;;;;;4843291;29;20721;-88
2022/10/11 09:25:26;;;;;;;24.67;13.00;;;15.50;99.90;;;;;;4843964;29;20196;-88
2022/10/11 09:27:58;;;;;;;21.97;11.03;;;15.60;99.90;;;;;;4843990;29;20256;-88
2022/10/11 09:30:24;;;;;;;24.03;12.73;;;15.60;99.90;;;;;;4844421;29;20217;-88
2022/10/11 09:33:38;;;;;;;18.37;11.53;;;15.70;99.90;;;;;;4844316;29;20200;-87
2022/10/11 09:36:31;;;;;;;20.47;12.67;;;15.80;99.90;;;;;;4843039;29;20184;-88
2022/10/11 09:39:00;;;;;;;19.77;12.13;;;16.00;99.90;;;;;;4834722;29;20197;-88
2022/10/11 09:41:40;;;;;;;17.43;10.67;;;16.10;99.90;;;;;;4840636;29;20212;-88
2022/10/11 09:44:07;;;;;;;16.90;10.30;;;16.20;99.90;;;;;;4857958;29;20179;-88
2022/10/11 09:46:40;;;;;;;18.15;11.02;;;16.20;99.90;;;;;;4851355;29;20280;-88
2022/10/11 09:49:15;;;;;;;16.03;9.80;;;16.20;99.90;;;;;;4865811;29;20240;-82
2022/10/11 09:51:48;;;;;;;15.97;9.67;;;16.30;99.90;;;;;;4846680;29;20226;-82
2022/10/11 09:54:16;;;;;;;14.07;10.48;;;16.30;99.90;;;;;;4859138;29;20299;-82
2022/10/11 09:56:44;;;;;;;18.07;9.33;;;16.30;99.90;;;;;;4878751;29;20197;-88
2022/10/11 09:59:31;;;;;;;13.57;9.73;;;16.30;99.90;;;;;;4865537;29;20200;-88
2022/10/11 10:02:12;;;;;;;16.52;9.23;;;16.20;99.90;;;;;;4864135;29;20208;-87
2022/10/11 10:05:08;;;;;;;19.05;10.30;;;16.20;99.90;;;;;;4865132;29;20188;-89
2022/10/11 10:07:39;;;;;;;15.52;9.68;;;16.10;99.90;;;;;;4887012;29;20173;-89
2022/10/11 10:10:27;;;;;;;16.15;8.80;;;16.10;99.90;;;;;;4851759;29;20241;-89
2022/10/11 10:12:59;;;;;;;18.35;10.23;;;16.10;99.90;;;;;;4875085;29;20213;-89
2022/10/11 10:15:36;;;;;;;18.17;10.67;;;16.00;99.90;;;;;;4850759;29;20196;-89
2022/10/11 10:18:09;;;;;;;17.67;12.17;;;15.90;99.90;;;;;;4843862;29;20180;-89
2022/10/11 10:20:37;;;;;;;21.03;10.97;;;15.80;99.90;;;;;;4843617;29;20240;-88
2022/10/11 10:23:19;;;;;;;20.13;11.47;;;15.80;99.90;;;;;;4859284;29;20248;-89
2022/10/11 10:26:23;;;;;;;19.30;10.00;;;15.80;99.90;;;;;;4845289;29;20197;-89
2022/10/11 10:29:01;;;;;;;20.80;11.73;;;15.90;99.90;;;;;;4825334;29;20257;-88
2022/10/11 10:31:52;;;;;;;15.77;10.73;;;15.80;99.90;;;;;;4835229;29;20208;-89
2022/10/11 10:34:45;;;;;;;18.20;11.70;;;15.80;99.90;;;;;;4844523;29;20187;-89
2022/10/11 10:37:28;;;;;;;19.33;11.50;;;15.80;99.90;;;;;;4859246;29;20189;-88
2022/10/11 10:40:23;;;;;;;15.47;10.27;;;15.70;99.90;;;;;;4859109;29;20177;-88
2022/10/11 10:42:49;;;;;;;15.60;10.17;;;15.80;99.90;;;;;;4858872;29;20236;-88
2022/10/11 10:45:17;;;;;;;15.40;10.73;;;15.90;99.90;;;;;;4859010;29;20200;-88
2022/10/11 10:48:01;;;;;;;20.10;11.23;;;15.80;99.90;;;;;;4858750;29;20196;-89
2022/10/11 10:50:40;;;;;;;19.60;11.10;;;15.80;99.90;;;;;;4859093;29;20213;-89
2022/10/11 10:53:18;;;;;;;19.43;11.47;;;15.80;99.90;;;;;;4857203;29;20185;-89
2022/10/11 10:55:57;;;;;;;18.75;11.60;;;15.70;99.90;;;;;;4841515;29;20216;-89
2022/10/11 10:58:26;;;;;;;18.30;9.80;;;15.80;99.90;;;;;;4842639;29;20248;-89
2022/10/11 11:01:17;;;;;;;15.23;10.20;;;15.80;99.90;;;;;;4856503;29;20200;-89
2022/10/11 11:04:02;;;;;;;21.87;10.73;;;15.80;99.90;;;;;;4844197;29;20203;-89
2022/10/11 11:06:37;;;;;;;22.80;10.47;;;15.80;99.90;;;;;;4855271;29;20243;-89
2022/10/11 11:09:05;;;;;;;19.20;10.02;;;15.80;99.90;;;;;;4854857;29;20200;-89
2022/10/11 11:11:54;;;;;;;19.17;9.23;;;15.70;99.90;;;;;;4846479;29;20231;-89
2022/10/11 11:14:46;;;;;;;13.73;9.87;;;15.80;99.90;;;;;;4862348;29;20173;-89
2022/10/11 11:17:37;;;;;;;15.50;9.03;;;15.90;99.90;;;;;;4838953;29;20257;-89
2022/10/11 11:20:25;;;;;;;16.83;9.57;;;16.00;99.90;;;;;;4861327;29;20200;-89
2022/10/11 11:23:04;;;;;;;19.67;10.20;;;16.10;99.90;;;;;;4860592;29;20204;-89
2022/10/11 11:25:51;;;;;;;20.40;8.70;;;16.10;99.90;;;;;;4869514;29;20204;-89
2022/10/11 11:28:36;;;;;;;13.60;8.77;;;16.10;99.90;;;;;;4876503;29;20177;-90
2022/10/11 11:31:26;;;;;;;15.67;8.20;;;16.30;99.90;;;;;;4846147;29;20212;-89
2022/10/11 11:34:24;;;;;;;14.17;8.30;;;16.40;99.90;;;;;;4862697;29;20181;-89
2022/10/11 11:37:02;;;;;;;15.10;8.70;;;16.40;99.90;;;;;;4862322;29;20173;-89
2022/10/11 11:39:42;;;;;;;15.93;9.05;;;16.40;99.90;;;;;;4862523;29;20234;-89
2022/10/11 11:42:50;;;;;;;16.75;7.55;;;16.40;99.90;;;;;;4862310;29;20208;-89
2022/10/11 11:45:28;;;;;;;13.02;8.32;;;16.50;99.90;;;;;;4862490;29;20251;-88
2022/10/11 11:48:09;;;;;;;14.80;8.07;;;16.50;99.90;;;;;;4861867;29;20264;-85
2022/10/11 11:50:42;;;;;;;10.70;8.15;;;16.60;99.90;;;;;;4862342;29;20200;-89
2022/10/11 11:53:23;;;;;;;16.00;9.65;;;16.70;99.90;;;;;;4854494;29;20173;-89
2022/10/11 11:55:59;;;;;;;16.63;8.75;;;16.60;99.90;;;;;;4856658;29;20631;-89
2022/10/11 11:58:49;;;;;;;15.75;9.50;;;16.60;99.90;;;;;;4862111;29;20200;-88
2022/10/11 12:01:36;;;;;;;16.15;8.63;;;16.50;99.90;;;;;;4862119;29;20213;-88
2022/10/11 12:04:09;;;;;;;17.00;9.10;;;16.50;99.90;;;;;;4862386;29;20196;-90
2022/10/11 12:06:36;;;;;;;16.00;9.55;;;16.40;99.90;;;;;;4837893;29;20185;-90
2022/10/11 12:09:07;;;;;;;19.60;10.02;;;16.40;99.90;;;;;;4861951;29;20253;-91
2022/10/11 12:11:36;;;;;;;18.07;10.43;;;16.30;99.90;;;;;;4850856;29;20217;-89
2022/10/11 12:14:21;;;;;;;16.33;10.20;;;16.30;99.90;;;;;;4828309;29;20185;-89
2022/10/11 12:17:06;;;;;;;14.63;9.40;;;16.10;99.90;;;;;;4827868;29;20444;-90
2022/10/11 12:19:32;;;;;;;12.70;9.07;;;16.10;99.90;;;;;;4843041;29;20177;-89
2022/10/11 12:22:26;;;;;;;16.13;8.70;;;16.20;99.90;;;;;;4842807;29;20209;-89
2022/10/11 12:25:21;;;;;;;12.17;8.40;;;16.20;99.90;;;;;;4842947;29;20189;-89
2022/10/11 12:27:50;;;;;;;14.55;8.07;;;16.20;99.90;;;;;;4841926;29;20197;-89
2022/10/11 12:30:52;;;;;;;16.25;9.43;;;16.30;99.90;;;;;;4843781;29;20208;-89
2022/10/11 12:33:30;;;;;;;13.00;9.10;;;16.30;99.90;;;;;;4845244;29;20203;-89
2022/10/11 12:36:00;;;;;;;14.80;8.43;;;16.20;99.90;;;;;;4861171;29;20185;-89
2022/10/11 12:38:36;;;;;;;16.95;10.10;;;16.20;99.90;;;;;;4860528;29;20192;-89
2022/10/11 12:41:08;;;;;;;19.50;10.33;;;16.20;99.90;;;;;;4861249;29;20279;-89
2022/10/11 12:43:56;;;;;;;18.20;10.00;;;16.10;99.90;;;;;;4845864;29;20184;-90
2022/10/11 12:46:27;;;;;;;17.17;9.90;;;16.10;99.90;;;;;;4845306;29;20200;-89
2022/10/11 12:49:26;;;;;;;17.87;11.00;;;16.00;99.90;;;;;;4861034;29;20268;-89
2022/10/11 12:52:21;;;;;;;14.50;8.70;;;16.00;99.90;;;;;;4846183;29;20583;-88
2022/10/11 12:55:25;;;;;;;12.60;8.53;;;16.00;99.90;;;;;;4846325;29;20181;-86
2022/10/11 12:58:22;;;;;;;14.82;8.60;;;16.00;99.90;;;;;;4854044;29;20279;-86
2022/10/11 13:01:11;;;;;;;14.18;9.60;;;16.10;99.90;;;;;;4845382;29;20212;-87
2022/10/11 13:03:57;;;;;;;13.67;9.53;;;16.00;99.90;;;;;;4860334;29;20180;-87
2022/10/11 13:06:30;;;;;;;17.37;9.43;;;15.90;99.90;;;;;;4842699;29;20189;-87